CheckWX is a tool to help pilots better visualize weather data.  It is not intended as a substitute for an official pre-flight weather briefing.

06:18:24 UTC

KTCC METAR
Tucumcari Municipal Airport
Tucumcari, New Mexico, USA
Current

25 mins ago

KTCC 230553Z AUTO 05007KT 10SM BKN013 BKN038 OVC085 11/08 A3012 RMK AO2 SLP169 60000 T01110083 10167 20111 53002
Observed
Apr-23 @ 05:53 UTC
Wind
  • 050° at 7 KTS
Visibility
10 SM
Flight Rules
MVFR
Cloud Levels
  • Broken at 1,300' AGL
  • Broken at 3,800' AGL
  • Overcast at 8,500' AGL
Temperature
11°C / 52°F
Dewpoint
C / 46°F
Humidity
82%
Altimeter
30.12" Hg
Pressure
1020.02 hPa
Previous

1 hour ago

KTCC 230453Z AUTO 06013KT 10SM OVC100 12/08 A3010 RMK AO2 SLP161 T01170078
Observed
Apr-23 @ 04:53 UTC
Wind
  • 060° at 13 KTS
Visibility
10 SM
Flight Rules
VFR
Cloud Levels
  • Overcast at 10,000' AGL
Temperature
12°C / 54°F
Dewpoint
C / 46°F
Humidity
77%
Altimeter
30.1" Hg
Pressure
1019.32 hPa
Previous

2 hours ago

KTCC 230353Z AUTO 07010KT 10SM OVC030 12/07 A3013 RMK AO2 SLP170 T01220072
Observed
Apr-23 @ 03:53 UTC
Wind
  • 070° at 10 KTS
Visibility
10 SM
Flight Rules
MVFR
Cloud Levels
  • Overcast at 3,000' AGL
Temperature
12°C / 54°F
Dewpoint
C / 45°F
Humidity
72%
Altimeter
30.13" Hg
Pressure
1020.32 hPa